sensor_id;sensor_type;location;lat;lon;timestamp;P1;durP1;ratioP1;P2;durP2;ratioP2
53927;SDS011;39837;47.630;18.822;2023-10-19T00:02:14;4.68;;;4.25;;
53927;SDS011;39837;47.630;18.822;2023-10-19T00:05:02;9.30;;;4.03;;
53927;SDS011;39837;47.630;18.822;2023-10-19T00:07:47;9.48;;;4.85;;
53927;SDS011;39837;47.630;18.822;2023-10-19T00:10:31;11.75;;;4.55;;
53927;SDS011;39837;47.630;18.822;2023-10-19T00:13:19;11.27;;;5.38;;
53927;SDS011;39837;47.630;18.822;2023-10-19T00:16:03;5.43;;;4.93;;
53927;SDS011;39837;47.630;18.822;2023-10-19T00:19:00;5.60;;;4.70;;
53927;SDS011;39837;47.630;18.822;2023-10-19T00:21:44;5.63;;;4.55;;
53927;SDS011;39837;47.630;18.822;2023-10-19T00:24:38;4.10;;;3.40;;
53927;SDS011;39837;47.630;18.822;2023-10-19T00:27:25;3.97;;;3.63;;
53927;SDS011;39837;47.630;18.822;2023-10-19T00:30:11;7.10;;;4.15;;
53927;SDS011;39837;47.630;18.822;2023-10-19T00:32:56;6.40;;;4.75;;
53927;SDS011;39837;47.630;18.822;2023-10-19T00:35:40;4.13;;;3.83;;
53927;SDS011;39837;47.630;18.822;2023-10-19T00:38:41;9.02;;;4.47;;
53927;SDS011;39837;47.630;18.822;2023-10-19T00:41:35;6.70;;;4.28;;
53927;SDS011;39837;47.630;18.822;2023-10-19T00:44:21;7.32;;;4.93;;
53927;SDS011;39837;47.630;18.822;2023-10-19T00:47:25;4.78;;;4.43;;
53927;SDS011;39837;47.630;18.822;2023-10-19T00:50:14;5.35;;;4.85;;
53927;SDS011;39837;47.630;18.822;2023-10-19T00:53:01;3.53;;;3.20;;
53927;SDS011;39837;47.630;18.822;2023-10-19T00:55:51;4.90;;;4.35;;
53927;SDS011;39837;47.630;18.822;2023-10-19T00:58:39;9.40;;;5.40;;
53927;SDS011;39837;47.630;18.822;2023-10-19T01:01:25;7.15;;;4.53;;
53927;SDS011;39837;47.630;18.822;2023-10-19T01:04:12;7.30;;;5.20;;
53927;SDS011;39837;47.630;18.822;2023-10-19T01:07:04;4.50;;;4.15;;
53927;SDS011;39837;47.630;18.822;2023-10-19T01:10:11;3.45;;;3.03;;
53927;SDS011;39837;47.630;18.822;2023-10-19T01:13:04;4.28;;;3.70;;
53927;SDS011;39837;47.630;18.822;2023-10-19T01:15:49;4.53;;;4.05;;
53927;SDS011;39837;47.630;18.822;2023-10-19T01:18:33;15.43;;;3.80;;
53927;SDS011;39837;47.630;18.822;2023-10-19T01:21:17;14.25;;;4.57;;
53927;SDS011;39837;47.630;18.822;2023-10-19T01:24:07;4.82;;;4.43;;
53927;SDS011;39837;47.630;18.822;2023-10-19T01:26:52;8.75;;;5.30;;
53927;SDS011;39837;47.630;18.822;2023-10-19T01:29:37;6.50;;;5.68;;
53927;SDS011;39837;47.630;18.822;2023-10-19T01:32:22;7.13;;;5.15;;
53927;SDS011;39837;47.630;18.822;2023-10-19T01:35:06;5.60;;;5.15;;
53927;SDS011;39837;47.630;18.822;2023-10-19T01:37:51;10.00;;;5.10;;
53927;SDS011;39837;47.630;18.822;2023-10-19T01:40:35;9.07;;;4.95;;
53927;SDS011;39837;47.630;18.822;2023-10-19T01:43:19;5.95;;;5.38;;
53927;SDS011;39837;47.630;18.822;2023-10-19T01:46:09;11.20;;;5.85;;
53927;SDS011;39837;47.630;18.822;2023-10-19T01:48:55;7.78;;;5.70;;
53927;SDS011;39837;47.630;18.822;2023-10-19T01:51:39;9.95;;;7.28;;
53927;SDS011;39837;47.630;18.822;2023-10-19T01:54:23;8.38;;;5.85;;
53927;SDS011;39837;47.630;18.822;2023-10-19T01:57:08;5.93;;;5.43;;
53927;SDS011;39837;47.630;18.822;2023-10-19T01:59:53;6.43;;;5.03;;
53927;SDS011;39837;47.630;18.822;2023-10-19T02:02:37;4.97;;;4.50;;
53927;SDS011;39837;47.630;18.822;2023-10-19T02:05:21;4.72;;;4.43;;
53927;SDS011;39837;47.630;18.822;2023-10-19T02:08:06;6.68;;;4.38;;
53927;SDS011;39837;47.630;18.822;2023-10-19T02:10:51;6.63;;;5.88;;
53927;SDS011;39837;47.630;18.822;2023-10-19T02:13:35;7.75;;;5.63;;
53927;SDS011;39837;47.630;18.822;2023-10-19T02:16:20;6.00;;;5.40;;
53927;SDS011;39837;47.630;18.822;2023-10-19T02:19:07;5.45;;;4.93;;
53927;SDS011;39837;47.630;18.822;2023-10-19T02:21:52;6.78;;;5.10;;
53927;SDS011;39837;47.630;18.822;2023-10-19T02:24:40;6.97;;;5.70;;
53927;SDS011;39837;47.630;18.822;2023-10-19T02:27:24;8.77;;;5.50;;
53927;SDS011;39837;47.630;18.822;2023-10-19T02:30:08;10.30;;;6.35;;
53927;SDS011;39837;47.630;18.822;2023-10-19T02:32:53;10.57;;;7.97;;
53927;SDS011;39837;47.630;18.822;2023-10-19T02:35:37;9.95;;;6.40;;
53927;SDS011;39837;47.630;18.822;2023-10-19T02:38:21;8.55;;;6.00;;
53927;SDS011;39837;47.630;18.822;2023-10-19T02:41:06;7.10;;;5.78;;
53927;SDS011;39837;47.630;18.822;2023-10-19T02:43:50;7.10;;;6.40;;
53927;SDS011;39837;47.630;18.822;2023-10-19T02:46:55;8.65;;;6.28;;
53927;SDS011;39837;47.630;18.822;2023-10-19T02:49:42;9.65;;;6.30;;
53927;SDS011;39837;47.630;18.822;2023-10-19T02:52:34;9.70;;;6.43;;
53927;SDS011;39837;47.630;18.822;2023-10-19T02:55:18;6.55;;;5.95;;
53927;SDS011;39837;47.630;18.822;2023-10-19T02:58:06;8.45;;;6.50;;
53927;SDS011;39837;47.630;18.822;2023-10-19T03:00:50;8.65;;;6.90;;
53927;SDS011;39837;47.630;18.822;2023-10-19T03:03:35;9.73;;;6.85;;
53927;SDS011;39837;47.630;18.822;2023-10-19T03:06:22;10.60;;;7.32;;
53927;SDS011;39837;47.630;18.822;2023-10-19T03:09:07;7.40;;;6.65;;
53927;SDS011;39837;47.630;18.822;2023-10-19T03:12:28;9.32;;;7.72;;
53927;SDS011;39837;47.630;18.822;2023-10-19T03:15:12;9.43;;;6.28;;
53927;SDS011;39837;47.630;18.822;2023-10-19T03:20:41;8.18;;;6.80;;
53927;SDS011;39837;47.630;18.822;2023-10-19T03:23:26;10.43;;;7.53;;
53927;SDS011;39837;47.630;18.822;2023-10-19T03:29:06;12.30;;;8.27;;
53927;SDS011;39837;47.630;18.822;2023-10-19T03:31:59;11.35;;;8.45;;
53927;SDS011;39837;47.630;18.822;2023-10-19T03:34:43;12.60;;;8.15;;
53927;SDS011;39837;47.630;18.822;2023-10-19T03:37:31;8.85;;;8.00;;
53927;SDS011;39837;47.630;18.822;2023-10-19T03:40:18;14.27;;;9.10;;
53927;SDS011;39837;47.630;18.822;2023-10-19T03:43:12;8.00;;;7.05;;
53927;SDS011;39837;47.630;18.822;2023-10-19T03:46:06;13.88;;;7.80;;
53927;SDS011;39837;47.630;18.822;2023-10-19T03:49:12;9.57;;;7.72;;
53927;SDS011;39837;47.630;18.822;2023-10-19T03:51:57;10.50;;;7.95;;
53927;SDS011;39837;47.630;18.822;2023-10-19T03:55:04;11.18;;;8.63;;
53927;SDS011;39837;47.630;18.822;2023-10-19T03:57:54;12.35;;;7.53;;
53927;SDS011;39837;47.630;18.822;2023-10-19T04:00:39;13.93;;;8.32;;
53927;SDS011;39837;47.630;18.822;2023-10-19T04:03:23;8.73;;;7.65;;
53927;SDS011;39837;47.630;18.822;2023-10-19T04:06:09;8.57;;;7.75;;
53927;SDS011;39837;47.630;18.822;2023-10-19T04:08:57;11.40;;;8.13;;
53927;SDS011;39837;47.630;18.822;2023-10-19T04:11:43;11.15;;;8.00;;
53927;SDS011;39837;47.630;18.822;2023-10-19T04:14:33;16.27;;;9.10;;
53927;SDS011;39837;47.630;18.822;2023-10-19T04:17:17;10.80;;;8.63;;
53927;SDS011;39837;47.630;18.822;2023-10-19T04:20:04;7.53;;;6.80;;
53927;SDS011;39837;47.630;18.822;2023-10-19T04:23:01;8.80;;;7.07;;
53927;SDS011;39837;47.630;18.822;2023-10-19T04:25:55;18.40;;;10.73;;
53927;SDS011;39837;47.630;18.822;2023-10-19T04:28:40;9.88;;;8.02;;
53927;SDS011;39837;47.630;18.822;2023-10-19T04:31:33;11.77;;;9.40;;
53927;SDS011;39837;47.630;18.822;2023-10-19T04:34:20;13.23;;;9.30;;
53927;SDS011;39837;47.630;18.822;2023-10-19T04:37:05;22.42;;;9.52;;
53927;SDS011;39837;47.630;18.822;2023-10-19T04:39:50;12.75;;;9.80;;
53927;SDS011;39837;47.630;18.822;2023-10-19T04:42:35;21.92;;;10.95;;
53927;SDS011;39837;47.630;18.822;2023-10-19T04:45:20;20.80;;;9.77;;
53927;SDS011;39837;47.630;18.822;2023-10-19T04:48:04;13.95;;;8.13;;
53927;SDS011;39837;47.630;18.822;2023-10-19T04:50:49;11.02;;;8.90;;
53927;SDS011;39837;47.630;18.822;2023-10-19T04:53:33;15.82;;;9.77;;
53927;SDS011;39837;47.630;18.822;2023-10-19T04:56:17;24.33;;;9.10;;
53927;SDS011;39837;47.630;18.822;2023-10-19T04:59:01;23.60;;;10.15;;
53927;SDS011;39837;47.630;18.822;2023-10-19T05:01:46;13.93;;;8.75;;
53927;SDS011;39837;47.630;18.822;2023-10-19T05:04:30;13.18;;;10.27;;
53927;SDS011;39837;47.630;18.822;2023-10-19T05:07:14;14.07;;;9.50;;
53927;SDS011;39837;47.630;18.822;2023-10-19T05:10:02;15.85;;;10.50;;
53927;SDS011;39837;47.630;18.822;2023-10-19T05:12:46;12.25;;;9.10;;
53927;SDS011;39837;47.630;18.822;2023-10-19T05:15:30;14.20;;;10.27;;
53927;SDS011;39837;47.630;18.822;2023-10-19T05:18:14;22.08;;;10.98;;
53927;SDS011;39837;47.630;18.822;2023-10-19T05:20:58;18.42;;;10.57;;
53927;SDS011;39837;47.630;18.822;2023-10-19T05:23:42;8.50;;;7.30;;
53927;SDS011;39837;47.630;18.822;2023-10-19T05:26:26;17.40;;;10.10;;
53927;SDS011;39837;47.630;18.822;2023-10-19T05:29:11;18.70;;;9.63;;
53927;SDS011;39837;47.630;18.822;2023-10-19T05:31:56;12.90;;;7.97;;
53927;SDS011;39837;47.630;18.822;2023-10-19T05:34:41;9.90;;;7.65;;
53927;SDS011;39837;47.630;18.822;2023-10-19T05:37:25;14.77;;;9.13;;
53927;SDS011;39837;47.630;18.822;2023-10-19T05:40:12;15.55;;;9.88;;
53927;SDS011;39837;47.630;18.822;2023-10-19T05:42:58;13.10;;;10.13;;
53927;SDS011;39837;47.630;18.822;2023-10-19T05:45:44;12.45;;;7.78;;
53927;SDS011;39837;47.630;18.822;2023-10-19T05:48:28;9.02;;;8.05;;
53927;SDS011;39837;47.630;18.822;2023-10-19T05:51:12;9.93;;;8.57;;
53927;SDS011;39837;47.630;18.822;2023-10-19T05:53:58;12.88;;;9.02;;
53927;SDS011;39837;47.630;18.822;2023-10-19T05:56:48;7.65;;;6.93;;
53927;SDS011;39837;47.630;18.822;2023-10-19T05:59:33;12.32;;;8.80;;
53927;SDS011;39837;47.630;18.822;2023-10-19T06:02:17;12.93;;;10.77;;
53927;SDS011;39837;47.630;18.822;2023-10-19T06:05:01;13.07;;;8.10;;
53927;SDS011;39837;47.630;18.822;2023-10-19T06:07:45;9.70;;;8.38;;
53927;SDS011;39837;47.630;18.822;2023-10-19T06:10:30;10.57;;;8.05;;
53927;SDS011;39837;47.630;18.822;2023-10-19T06:13:15;11.30;;;8.80;;
53927;SDS011;39837;47.630;18.822;2023-10-19T06:16:00;11.13;;;8.88;;
53927;SDS011;39837;47.630;18.822;2023-10-19T06:18:44;10.32;;;8.10;;
53927;SDS011;39837;47.630;18.822;2023-10-19T06:21:28;9.48;;;8.07;;
53927;SDS011;39837;47.630;18.822;2023-10-19T06:24:13;24.23;;;9.70;;
53927;SDS011;39837;47.630;18.822;2023-10-19T06:26:58;11.80;;;8.48;;
53927;SDS011;39837;47.630;18.822;2023-10-19T06:29:42;14.70;;;10.50;;
53927;SDS011;39837;47.630;18.822;2023-10-19T06:32:27;14.55;;;8.65;;
53927;SDS011;39837;47.630;18.822;2023-10-19T06:35:11;17.42;;;9.82;;
53927;SDS011;39837;47.630;18.822;2023-10-19T06:37:55;11.00;;;9.05;;
53927;SDS011;39837;47.630;18.822;2023-10-19T06:40:39;8.57;;;7.53;;
53927;SDS011;39837;47.630;18.822;2023-10-19T06:43:24;15.02;;;10.07;;
53927;SDS011;39837;47.630;18.822;2023-10-19T06:46:12;14.23;;;10.23;;
53927;SDS011;39837;47.630;18.822;2023-10-19T06:48:56;17.65;;;9.65;;
53927;SDS011;39837;47.630;18.822;2023-10-19T06:51:44;13.82;;;9.18;;
53927;SDS011;39837;47.630;18.822;2023-10-19T06:54:28;10.90;;;8.82;;
53927;SDS011;39837;47.630;18.822;2023-10-19T06:57:13;20.33;;;10.05;;
53927;SDS011;39837;47.630;18.822;2023-10-19T06:59:56;20.48;;;10.70;;
53927;SDS011;39837;47.630;18.822;2023-10-19T07:02:44;12.23;;;10.30;;
53927;SDS011;39837;47.630;18.822;2023-10-19T07:05:30;10.93;;;9.10;;
53927;SDS011;39837;47.630;18.822;2023-10-19T07:08:13;9.23;;;7.50;;
53927;SDS011;39837;47.630;18.822;2023-10-19T07:10:57;34.63;;;19.98;;
53927;SDS011;39837;47.630;18.822;2023-10-19T07:13:41;18.05;;;9.65;;
53927;SDS011;39837;47.630;18.822;2023-10-19T07:16:25;20.05;;;11.40;;
53927;SDS011;39837;47.630;18.822;2023-10-19T07:19:10;9.25;;;7.65;;
53927;SDS011;39837;47.630;18.822;2023-10-19T07:21:54;32.60;;;9.40;;
53927;SDS011;39837;47.630;18.822;2023-10-19T07:24:41;9.80;;;7.63;;
53927;SDS011;39837;47.630;18.822;2023-10-19T07:27:25;12.70;;;8.20;;
53927;SDS011;39837;47.630;18.822;2023-10-19T07:30:11;12.75;;;9.43;;
53927;SDS011;39837;47.630;18.822;2023-10-19T07:32:58;11.98;;;8.60;;
53927;SDS011;39837;47.630;18.822;2023-10-19T07:35:43;13.32;;;10.10;;
53927;SDS011;39837;47.630;18.822;2023-10-19T07:38:30;14.25;;;8.75;;
53927;SDS011;39837;47.630;18.822;2023-10-19T07:41:17;10.25;;;8.68;;
53927;SDS011;39837;47.630;18.822;2023-10-19T07:44:01;11.75;;;7.75;;
53927;SDS011;39837;47.630;18.822;2023-10-19T07:46:45;12.85;;;9.75;;
53927;SDS011;39837;47.630;18.822;2023-10-19T07:49:30;16.58;;;9.30;;
53927;SDS011;39837;47.630;18.822;2023-10-19T07:52:14;15.13;;;8.10;;
53927;SDS011;39837;47.630;18.822;2023-10-19T07:54:58;12.32;;;8.63;;
53927;SDS011;39837;47.630;18.822;2023-10-19T07:57:42;16.75;;;10.82;;
53927;SDS011;39837;47.630;18.822;2023-10-19T08:00:28;15.02;;;8.55;;
53927;SDS011;39837;47.630;18.822;2023-10-19T08:03:13;10.88;;;9.07;;
53927;SDS011;39837;47.630;18.822;2023-10-19T08:05:59;15.93;;;8.73;;
53927;SDS011;39837;47.630;18.822;2023-10-19T08:08:43;10.43;;;8.73;;
53927;SDS011;39837;47.630;18.822;2023-10-19T08:11:27;6.60;;;5.72;;
53927;SDS011;39837;47.630;18.822;2023-10-19T08:14:11;8.63;;;7.70;;
53927;SDS011;39837;47.630;18.822;2023-10-19T08:16:55;8.85;;;7.05;;
53927;SDS011;39837;47.630;18.822;2023-10-19T08:19:40;12.00;;;6.78;;
53927;SDS011;39837;47.630;18.822;2023-10-19T08:22:24;7.53;;;5.95;;
53927;SDS011;39837;47.630;18.822;2023-10-19T08:28:00;19.00;;;8.05;;
53927;SDS011;39837;47.630;18.822;2023-10-19T08:30:45;7.05;;;6.47;;
53927;SDS011;39837;47.630;18.822;2023-10-19T08:33:40;13.35;;;9.57;;
53927;SDS011;39837;47.630;18.822;2023-10-19T08:36:25;17.02;;;9.90;;
53927;SDS011;39837;47.630;18.822;2023-10-19T08:39:10;15.23;;;9.77;;
53927;SDS011;39837;47.630;18.822;2023-10-19T08:41:57;9.73;;;7.80;;
53927;SDS011;39837;47.630;18.822;2023-10-19T08:44:42;7.50;;;6.50;;
53927;SDS011;39837;47.630;18.822;2023-10-19T08:47:28;5.78;;;5.18;;
53927;SDS011;39837;47.630;18.822;2023-10-19T08:50:12;8.35;;;6.30;;
53927;SDS011;39837;47.630;18.822;2023-10-19T08:52:58;7.15;;;6.55;;
53927;SDS011;39837;47.630;18.822;2023-10-19T08:55:43;9.13;;;5.47;;
53927;SDS011;39837;47.630;18.822;2023-10-19T08:58:27;7.28;;;5.78;;
53927;SDS011;39837;47.630;18.822;2023-10-19T09:01:11;9.55;;;4.45;;
53927;SDS011;39837;47.630;18.822;2023-10-19T09:03:56;3.95;;;3.70;;
53927;SDS011;39837;47.630;18.822;2023-10-19T09:06:41;5.05;;;4.68;;
53927;SDS011;39837;47.630;18.822;2023-10-19T09:09:26;4.05;;;3.58;;
53927;SDS011;39837;47.630;18.822;2023-10-19T09:12:15;8.57;;;4.50;;
53927;SDS011;39837;47.630;18.822;2023-10-19T09:14:59;5.57;;;4.28;;
53927;SDS011;39837;47.630;18.822;2023-10-19T09:17:43;7.47;;;4.30;;
53927;SDS011;39837;47.630;18.822;2023-10-19T09:20:28;4.82;;;4.43;;
53927;SDS011;39837;47.630;18.822;2023-10-19T09:23:12;4.60;;;4.15;;
53927;SDS011;39837;47.630;18.822;2023-10-19T09:25:57;6.63;;;4.75;;
53927;SDS011;39837;47.630;18.822;2023-10-19T09:28:42;5.22;;;4.82;;
53927;SDS011;39837;47.630;18.822;2023-10-19T09:31:26;10.05;;;5.32;;
53927;SDS011;39837;47.630;18.822;2023-10-19T09:34:10;16.42;;;8.00;;
53927;SDS011;39837;47.630;18.822;2023-10-19T09:36:54;3.45;;;2.63;;
53927;SDS011;39837;47.630;18.822;2023-10-19T09:39:38;2.25;;;2.15;;
53927;SDS011;39837;47.630;18.822;2023-10-19T09:42:27;5.50;;;4.75;;
53927;SDS011;39837;47.630;18.822;2023-10-19T09:45:12;3.17;;;2.97;;
53927;SDS011;39837;47.630;18.822;2023-10-19T09:47:56;5.35;;;4.95;;
53927;SDS011;39837;47.630;18.822;2023-10-19T09:50:44;5.63;;;5.00;;
53927;SDS011;39837;47.630;18.822;2023-10-19T09:53:36;5.20;;;4.03;;
53927;SDS011;39837;47.630;18.822;2023-10-19T09:56:24;4.63;;;4.22;;
53927;SDS011;39837;47.630;18.822;2023-10-19T09:59:14;3.00;;;2.85;;
53927;SDS011;39837;47.630;18.822;2023-10-19T10:02:08;4.38;;;4.05;;
53927;SDS011;39837;47.630;18.822;2023-10-19T10:04:56;4.20;;;3.90;;
53927;SDS011;39837;47.630;18.822;2023-10-19T10:07:41;3.95;;;3.67;;
53927;SDS011;39837;47.630;18.822;2023-10-19T10:10:25;3.47;;;3.25;;
53927;SDS011;39837;47.630;18.822;2023-10-19T10:16:13;3.97;;;3.13;;
53927;SDS011;39837;47.630;18.822;2023-10-19T10:19:00;3.55;;;3.35;;
53927;SDS011;39837;47.630;18.822;2023-10-19T10:21:59;5.15;;;3.85;;
53927;SDS011;39837;47.630;18.822;2023-10-19T10:24:53;4.30;;;3.92;;
53927;SDS011;39837;47.630;18.822;2023-10-19T10:27:50;3.22;;;3.05;;
53927;SDS011;39837;47.630;18.822;2023-10-19T10:30:34;4.65;;;4.35;;
53927;SDS011;39837;47.630;18.822;2023-10-19T10:33:37;8.45;;;5.75;;
53927;SDS011;39837;47.630;18.822;2023-10-19T10:36:22;4.13;;;3.92;;
53927;SDS011;39837;47.630;18.822;2023-10-19T10:39:06;5.10;;;4.47;;
53927;SDS011;39837;47.630;18.822;2023-10-19T10:41:59;8.82;;;4.97;;
53927;SDS011;39837;47.630;18.822;2023-10-19T10:44:47;5.30;;;3.72;;
53927;SDS011;39837;47.630;18.822;2023-10-19T10:47:31;6.13;;;3.45;;
53927;SDS011;39837;47.630;18.822;2023-10-19T10:50:19;3.40;;;3.10;;
53927;SDS011;39837;47.630;18.822;2023-10-19T10:53:04;9.23;;;5.03;;
53927;SDS011;39837;47.630;18.822;2023-10-19T10:55:49;10.95;;;4.90;;
53927;SDS011;39837;47.630;18.822;2023-10-19T10:58:33;6.88;;;4.55;;
53927;SDS011;39837;47.630;18.822;2023-10-19T11:01:38;4.78;;;4.13;;
53927;SDS011;39837;47.630;18.822;2023-10-19T11:04:21;6.00;;;5.50;;
53927;SDS011;39837;47.630;18.822;2023-10-19T11:07:05;2.83;;;2.72;;
53927;SDS011;39837;47.630;18.822;2023-10-19T11:09:50;4.93;;;3.45;;
53927;SDS011;39837;47.630;18.822;2023-10-19T11:12:34;6.57;;;6.03;;
53927;SDS011;39837;47.630;18.822;2023-10-19T11:15:20;5.13;;;4.38;;
53927;SDS011;39837;47.630;18.822;2023-10-19T11:18:05;6.43;;;5.53;;
53927;SDS011;39837;47.630;18.822;2023-10-19T11:20:56;7.93;;;4.57;;
53927;SDS011;39837;47.630;18.822;2023-10-19T11:26:31;6.38;;;3.65;;
53927;SDS011;39837;47.630;18.822;2023-10-19T11:29:24;5.97;;;5.45;;
53927;SDS011;39837;47.630;18.822;2023-10-19T11:32:08;7.50;;;5.13;;
53927;SDS011;39837;47.630;18.822;2023-10-19T11:34:56;7.65;;;5.68;;
53927;SDS011;39837;47.630;18.822;2023-10-19T11:37:47;13.55;;;4.82;;
53927;SDS011;39837;47.630;18.822;2023-10-19T11:40:32;8.02;;;6.68;;
53927;SDS011;39837;47.630;18.822;2023-10-19T11:43:16;9.60;;;4.55;;
53927;SDS011;39837;47.630;18.822;2023-10-19T11:48:49;6.57;;;5.88;;
53927;SDS011;39837;47.630;18.822;2023-10-19T11:51:33;5.55;;;5.05;;
53927;SDS011;39837;47.630;18.822;2023-10-19T11:54:17;7.53;;;6.78;;
53927;SDS011;39837;47.630;18.822;2023-10-19T11:57:01;6.95;;;6.20;;
53927;SDS011;39837;47.630;18.822;2023-10-19T11:59:45;9.32;;;8.15;;
53927;SDS011;39837;47.630;18.822;2023-10-19T12:02:36;8.70;;;7.22;;
53927;SDS011;39837;47.630;18.822;2023-10-19T12:05:24;6.35;;;5.47;;
53927;SDS011;39837;47.630;18.822;2023-10-19T12:08:08;20.88;;;7.90;;
53927;SDS011;39837;47.630;18.822;2023-10-19T12:10:52;12.18;;;8.60;;
53927;SDS011;39837;47.630;18.822;2023-10-19T12:13:36;12.57;;;7.13;;
53927;SDS011;39837;47.630;18.822;2023-10-19T12:16:21;16.02;;;9.10;;
53927;SDS011;39837;47.630;18.822;2023-10-19T12:19:07;12.48;;;8.50;;
53927;SDS011;39837;47.630;18.822;2023-10-19T12:21:51;11.82;;;7.68;;
53927;SDS011;39837;47.630;18.822;2023-10-19T12:24:35;11.02;;;7.07;;
53927;SDS011;39837;47.630;18.822;2023-10-19T12:27:19;9.23;;;7.55;;
53927;SDS011;39837;47.630;18.822;2023-10-19T12:30:03;9.10;;;7.30;;
53927;SDS011;39837;47.630;18.822;2023-10-19T12:35:44;10.38;;;7.95;;
53927;SDS011;39837;47.630;18.822;2023-10-19T12:38:29;8.98;;;7.72;;
53927;SDS011;39837;47.630;18.822;2023-10-19T12:41:13;16.38;;;9.85;;
53927;SDS011;39837;47.630;18.822;2023-10-19T12:43:58;10.88;;;8.20;;
53927;SDS011;39837;47.630;18.822;2023-10-19T12:46:44;14.57;;;9.02;;
53927;SDS011;39837;47.630;18.822;2023-10-19T12:49:28;12.18;;;8.07;;
53927;SDS011;39837;47.630;18.822;2023-10-19T12:52:13;10.80;;;8.27;;
53927;SDS011;39837;47.630;18.822;2023-10-19T12:54:58;17.90;;;7.83;;
53927;SDS011;39837;47.630;18.822;2023-10-19T12:57:44;22.98;;;9.52;;
53927;SDS011;39837;47.630;18.822;2023-10-19T13:00:28;19.10;;;9.88;;
53927;SDS011;39837;47.630;18.822;2023-10-19T13:03:20;11.50;;;7.82;;
53927;SDS011;39837;47.630;18.822;2023-10-19T13:06:05;13.45;;;8.00;;
53927;SDS011;39837;47.630;18.822;2023-10-19T13:08:51;15.43;;;9.38;;
53927;SDS011;39837;47.630;18.822;2023-10-19T13:11:35;12.93;;;9.18;;
53927;SDS011;39837;47.630;18.822;2023-10-19T13:14:19;8.00;;;6.93;;
53927;SDS011;39837;47.630;18.822;2023-10-19T13:17:03;9.77;;;7.40;;
53927;SDS011;39837;47.630;18.822;2023-10-19T13:19:47;8.38;;;6.20;;
53927;SDS011;39837;47.630;18.822;2023-10-19T13:22:35;8.32;;;7.05;;
53927;SDS011;39837;47.630;18.822;2023-10-19T13:25:19;7.72;;;5.90;;
53927;SDS011;39837;47.630;18.822;2023-10-19T13:28:12;22.55;;;8.85;;
53927;SDS011;39837;47.630;18.822;2023-10-19T13:30:57;6.78;;;5.93;;
53927;SDS011;39837;47.630;18.822;2023-10-19T13:33:41;7.65;;;6.93;;
53927;SDS011;39837;47.630;18.822;2023-10-19T13:39:11;7.05;;;5.90;;
53927;SDS011;39837;47.630;18.822;2023-10-19T13:42:00;6.60;;;6.00;;
53927;SDS011;39837;47.630;18.822;2023-10-19T13:44:44;16.40;;;7.07;;
53927;SDS011;39837;47.630;18.822;2023-10-19T13:47:28;9.65;;;5.93;;
53927;SDS011;39837;47.630;18.822;2023-10-19T13:50:11;20.45;;;6.85;;
53927;SDS011;39837;47.630;18.822;2023-10-19T13:52:57;8.30;;;6.43;;
53927;SDS011;39837;47.630;18.822;2023-10-19T13:55:42;6.88;;;5.75;;
53927;SDS011;39837;47.630;18.822;2023-10-19T13:58:26;7.65;;;6.93;;
53927;SDS011;39837;47.630;18.822;2023-10-19T14:01:10;9.85;;;7.15;;
53927;SDS011;39837;47.630;18.822;2023-10-19T14:03:55;13.68;;;8.90;;
53927;SDS011;39837;47.630;18.822;2023-10-19T14:06:39;11.23;;;7.35;;
53927;SDS011;39837;47.630;18.822;2023-10-19T14:09:22;12.43;;;8.40;;
53927;SDS011;39837;47.630;18.822;2023-10-19T14:12:07;13.75;;;8.25;;
53927;SDS011;39837;47.630;18.822;2023-10-19T14:14:52;13.93;;;9.20;;
53927;SDS011;39837;47.630;18.822;2023-10-19T14:17:36;7.28;;;6.57;;
53927;SDS011;39837;47.630;18.822;2023-10-19T14:20:20;13.40;;;8.30;;
53927;SDS011;39837;47.630;18.822;2023-10-19T14:23:04;16.90;;;11.13;;
53927;SDS011;39837;47.630;18.822;2023-10-19T14:25:49;7.75;;;6.93;;
53927;SDS011;39837;47.630;18.822;2023-10-19T14:28:34;9.65;;;6.93;;
53927;SDS011;39837;47.630;18.822;2023-10-19T14:31:19;14.60;;;9.57;;
53927;SDS011;39837;47.630;18.822;2023-10-19T14:34:04;10.27;;;7.63;;
53927;SDS011;39837;47.630;18.822;2023-10-19T14:36:48;16.13;;;9.10;;
53927;SDS011;39837;47.630;18.822;2023-10-19T14:39:32;10.68;;;8.25;;
53927;SDS011;39837;47.630;18.822;2023-10-19T14:42:15;9.50;;;8.20;;
53927;SDS011;39837;47.630;18.822;2023-10-19T14:44:59;11.75;;;9.70;;
53927;SDS011;39837;47.630;18.822;2023-10-19T14:47:47;17.20;;;10.05;;
53927;SDS011;39837;47.630;18.822;2023-10-19T14:50:32;11.23;;;9.20;;
53927;SDS011;39837;47.630;18.822;2023-10-19T14:53:16;14.05;;;9.88;;
53927;SDS011;39837;47.630;18.822;2023-10-19T14:56:01;20.20;;;10.63;;
53927;SDS011;39837;47.630;18.822;2023-10-19T14:58:45;17.95;;;10.80;;
53927;SDS011;39837;47.630;18.822;2023-10-19T15:01:29;13.80;;;9.77;;
53927;SDS011;39837;47.630;18.822;2023-10-19T15:04:14;18.35;;;9.25;;
53927;SDS011;39837;47.630;18.822;2023-10-19T15:06:58;13.25;;;8.68;;
53927;SDS011;39837;47.630;18.822;2023-10-19T15:09:42;25.35;;;8.98;;
53927;SDS011;39837;47.630;18.822;2023-10-19T15:12:26;9.48;;;8.13;;
53927;SDS011;39837;47.630;18.822;2023-10-19T15:15:10;13.77;;;9.35;;
53927;SDS011;39837;47.630;18.822;2023-10-19T15:17:54;19.38;;;8.20;;
53927;SDS011;39837;47.630;18.822;2023-10-19T15:20:39;24.45;;;9.75;;
53927;SDS011;39837;47.630;18.822;2023-10-19T15:23:23;11.35;;;9.15;;
53927;SDS011;39837;47.630;18.822;2023-10-19T15:26:09;19.92;;;9.38;;
53927;SDS011;39837;47.630;18.822;2023-10-19T15:29:00;14.38;;;9.88;;
53927;SDS011;39837;47.630;18.822;2023-10-19T15:31:44;12.73;;;9.90;;
53927;SDS011;39837;47.630;18.822;2023-10-19T15:34:28;12.25;;;8.48;;
53927;SDS011;39837;47.630;18.822;2023-10-19T15:37:18;12.57;;;7.93;;
53927;SDS011;39837;47.630;18.822;2023-10-19T15:40:02;14.60;;;9.85;;
53927;SDS011;39837;47.630;18.822;2023-10-19T15:42:50;16.02;;;10.98;;
53927;SDS011;39837;47.630;18.822;2023-10-19T15:45:37;18.88;;;10.70;;
53927;SDS011;39837;47.630;18.822;2023-10-19T15:48:23;13.05;;;9.10;;
53927;SDS011;39837;47.630;18.822;2023-10-19T15:51:07;20.33;;;10.68;;
53927;SDS011;39837;47.630;18.822;2023-10-19T15:53:52;23.50;;;11.60;;
53927;SDS011;39837;47.630;18.822;2023-10-19T15:56:37;12.25;;;8.85;;
53927;SDS011;39837;47.630;18.822;2023-10-19T15:59:21;20.30;;;10.23;;
53927;SDS011;39837;47.630;18.822;2023-10-19T16:02:05;20.13;;;12.10;;
53927;SDS011;39837;47.630;18.822;2023-10-19T16:04:49;15.85;;;10.73;;
53927;SDS011;39837;47.630;18.822;2023-10-19T16:07:33;13.90;;;8.90;;
53927;SDS011;39837;47.630;18.822;2023-10-19T16:10:19;12.15;;;10.00;;
53927;SDS011;39837;47.630;18.822;2023-10-19T16:13:04;18.85;;;11.48;;
53927;SDS011;39837;47.630;18.822;2023-10-19T16:15:49;16.48;;;10.70;;
53927;SDS011;39837;47.630;18.822;2023-10-19T16:18:34;27.02;;;17.63;;
53927;SDS011;39837;47.630;18.822;2023-10-19T16:21:19;25.77;;;12.03;;
53927;SDS011;39837;47.630;18.822;2023-10-19T16:24:06;17.65;;;10.95;;
53927;SDS011;39837;47.630;18.822;2023-10-19T16:26:53;15.18;;;9.98;;
53927;SDS011;39837;47.630;18.822;2023-10-19T16:29:40;17.33;;;10.30;;
53927;SDS011;39837;47.630;18.822;2023-10-19T16:32:25;26.77;;;8.68;;
53927;SDS011;39837;47.630;18.822;2023-10-19T16:35:11;17.17;;;10.05;;
53927;SDS011;39837;47.630;18.822;2023-10-19T16:40:41;20.17;;;10.73;;
53927;SDS011;39837;47.630;18.822;2023-10-19T16:43:26;11.00;;;9.10;;